Time;durP1;ratioP1;P1;durP2;ratioP2;P2;SDS_P1;SDS_P2;PMS_P1;PMS_P2;Temp;Humidity;BMP_temperature;BMP_pressure;BME280_temperature;BME280_humidity;BME280_pressure;Samples;Min_cycle;Max_cycle;Signal;HPM_P1;HPM_P2
2021/09/04 00:01:36;;;;;;;4.43;2.85;;;;;;;;;;4458422;32;20224;-51
2021/09/04 00:04:02;;;;;;;4.95;3.20;;;;;;;;;;4464569;32;20284;-51
2021/09/04 00:06:27;;;;;;;4.57;2.90;;;;;;;;;;4456675;32;20384;-51
2021/09/04 00:08:52;;;;;;;5.37;3.65;;;;;;;;;;4449812;32;20200;-52
2021/09/04 00:11:19;;;;;;;4.78;3.45;;;;;;;;;;4450083;32;20432;-52
2021/09/04 00:13:45;;;;;;;5.15;3.33;;;;;;;;;;4450017;32;20232;-51
2021/09/04 00:16:10;;;;;;;5.03;3.28;;;;;;;;;;4448851;32;20612;-51
2021/09/04 00:18:36;;;;;;;4.18;2.95;;;;;;;;;;4448750;32;20208;-52
2021/09/04 00:21:01;;;;;;;5.30;3.12;;;;;;;;;;4450066;32;20297;-51
2021/09/04 00:23:27;;;;;;;4.65;3.17;;;;;;;;;;4450028;32;20298;-50
2021/09/04 00:25:53;;;;;;;5.30;3.20;;;;;;;;;;4462785;32;20358;-53
2021/09/04 00:28:18;;;;;;;5.25;3.25;;;;;;;;;;4465610;32;20324;-50
2021/09/04 00:30:44;;;;;;;5.35;3.42;;;;;;;;;;4465982;32;20835;-51
2021/09/04 00:33:10;;;;;;;4.05;2.90;;;;;;;;;;4465823;32;20251;-51
2021/09/04 00:35:35;;;;;;;4.20;2.92;;;;;;;;;;4465835;32;20298;-52
2021/09/04 00:38:01;;;;;;;6.60;3.62;;;;;;;;;;4465672;32;20250;-52
2021/09/04 00:40:27;;;;;;;6.20;3.35;;;;;;;;;;4465610;32;20272;-51
2021/09/04 00:42:52;;;;;;;3.37;2.58;;;;;;;;;;4465737;32;20594;-51
2021/09/04 00:45:18;;;;;;;10.18;3.50;;;;;;;;;;4465314;32;20317;-51
2021/09/04 00:48:09;;;;;;;6.50;3.05;;;;;;;;;;4465606;32;20526;-51
2021/09/04 00:50:36;;;;;;;6.68;2.92;;;;;;;;;;4462591;32;20246;-51
2021/09/04 00:53:03;;;;;;;4.70;2.87;;;;;;;;;;4465686;32;20236;-51
2021/09/04 00:55:28;;;;;;;5.00;3.47;;;;;;;;;;4465473;32;20407;-51
2021/09/04 00:57:54;;;;;;;3.78;3.10;;;;;;;;;;4465177;32;20782;-52
2021/09/04 01:00:20;;;;;;;4.47;3.10;;;;;;;;;;4465256;32;20196;-51
2021/09/04 01:02:46;;;;;;;3.78;2.78;;;;;;;;;;4449087;32;20284;-51
2021/09/04 01:05:12;;;;;;;3.65;2.47;;;;;;;;;;4449801;32;20217;-51
2021/09/04 01:07:39;;;;;;;6.87;3.30;;;;;;;;;;4449605;32;20311;-51
2021/09/04 01:10:05;;;;;;;5.47;3.28;;;;;;;;;;4449369;32;20264;-51
2021/09/04 01:12:31;;;;;;;4.82;3.33;;;;;;;;;;4448597;32;20224;-51
2021/09/04 01:14:58;;;;;;;4.03;3.03;;;;;;;;;;4449146;32;20623;-51
2021/09/04 01:17:25;;;;;;;6.60;4.35;;;;;;;;;;4449607;32;20251;-51
2021/09/04 01:19:50;;;;;;;6.97;3.42;;;;;;;;;;4449275;32;20272;-52
2021/09/04 01:22:16;;;;;;;5.28;3.12;;;;;;;;;;4449345;32;20224;-50
2021/09/04 01:24:48;;;;;;;4.28;3.28;;;;;;;;;;4454224;32;20645;-52
2021/09/04 01:27:15;;;;;;;5.10;3.15;;;;;;;;;;4464839;32;20619;-51
2021/09/04 01:29:40;;;;;;;5.80;3.40;;;;;;;;;;4464456;32;20235;-51
2021/09/04 01:32:06;;;;;;;9.00;3.45;;;;;;;;;;4459708;32;20254;-51
2021/09/04 01:34:31;;;;;;;6.40;4.28;;;;;;;;;;4464661;32;20204;-51
2021/09/04 01:36:57;;;;;;;7.47;3.12;;;;;;;;;;4464694;32;20314;-52
2021/09/04 01:39:22;;;;;;;12.57;3.10;;;;;;;;;;4464711;32;20236;-52
2021/09/04 01:41:48;;;;;;;4.85;3.35;;;;;;;;;;4464711;32;21114;-52
2021/09/04 01:44:14;;;;;;;5.07;3.67;;;;;;;;;;4464304;32;20288;-51
2021/09/04 01:46:39;;;;;;;5.80;3.45;;;;;;;;;;4464103;32;20720;-51
2021/09/04 01:49:05;;;;;;;5.75;3.00;;;;;;;;;;4464416;32;20196;-51
2021/09/04 01:51:30;;;;;;;5.12;3.75;;;;;;;;;;4464353;32;20628;-52
2021/09/04 01:53:56;;;;;;;4.97;3.35;;;;;;;;;;4464348;32;20680;-52
2021/09/04 01:56:22;;;;;;;4.45;3.45;;;;;;;;;;4464203;32;20224;-51
2021/09/04 01:58:47;;;;;;;11.12;3.80;;;;;;;;;;4455903;32;20357;-51
2021/09/04 02:01:13;;;;;;;7.50;3.22;;;;;;;;;;4453971;32;20343;-54
2021/09/04 02:03:38;;;;;;;4.35;3.53;;;;;;;;;;4463145;32;20730;-51
2021/09/04 02:06:04;;;;;;;8.98;3.53;;;;;;;;;;4464682;32;20287;-51
2021/09/04 02:08:30;;;;;;;5.12;3.53;;;;;;;;;;4464549;32;20287;-51
2021/09/04 02:10:56;;;;;;;2.67;2.42;;;;;;;;;;4464322;32;20275;-52
2021/09/04 02:13:21;;;;;;;5.47;3.95;;;;;;;;;;4463967;32;20314;-51
2021/09/04 02:15:47;;;;;;;7.05;2.95;;;;;;;;;;4463351;32;20398;-51
2021/09/04 02:18:13;;;;;;;8.68;3.70;;;;;;;;;;4464523;32;20697;-51
2021/09/04 02:20:38;;;;;;;6.82;3.83;;;;;;;;;;4464306;32;20263;-53
2021/09/04 02:23:04;;;;;;;4.87;3.90;;;;;;;;;;4464272;32;20335;-51
2021/09/04 02:25:29;;;;;;;4.55;3.70;;;;;;;;;;4463908;32;20208;-51
2021/09/04 02:27:55;;;;;;;5.53;3.33;;;;;;;;;;4464066;32;20255;-51
2021/09/04 02:30:20;;;;;;;6.10;3.30;;;;;;;;;;4464436;32;20296;-51
2021/09/04 02:32:46;;;;;;;6.28;4.70;;;;;;;;;;4455802;32;20255;-51
2021/09/04 02:35:12;;;;;;;6.07;3.62;;;;;;;;;;4448425;32;20205;-51
2021/09/04 02:37:37;;;;;;;10.15;4.07;;;;;;;;;;4448645;32;20885;-51
2021/09/04 02:40:04;;;;;;;5.78;4.10;;;;;;;;;;4448301;32;20228;-51
2021/09/04 02:42:30;;;;;;;6.25;4.05;;;;;;;;;;4447934;32;20300;-52
2021/09/04 02:44:55;;;;;;;5.45;3.60;;;;;;;;;;4448445;32;20220;-51
2021/09/04 02:47:21;;;;;;;4.53;3.20;;;;;;;;;;4448343;32;20278;-51
2021/09/04 02:49:46;;;;;;;5.30;4.25;;;;;;;;;;4447033;32;20625;-52
2021/09/04 02:52:12;;;;;;;4.80;3.42;;;;;;;;;;4448208;32;20544;-51
2021/09/04 02:54:37;;;;;;;14.50;10.27;;;;;;;;;;4448316;32;20291;-51
2021/09/04 02:57:03;;;;;;;15.98;12.85;;;;;;;;;;4448418;32;20240;-52
2021/09/04 02:59:29;;;;;;;10.82;7.32;;;;;;;;;;4448083;32;20213;-51
2021/09/04 03:01:54;;;;;;;6.80;4.93;;;;;;;;;;4457983;32;20323;-51
2021/09/04 03:04:20;;;;;;;5.60;4.37;;;;;;;;;;4463939;32;20286;-51
2021/09/04 03:06:45;;;;;;;8.40;4.82;;;;;;;;;;4463734;32;20307;-51
2021/09/04 03:09:11;;;;;;;6.78;4.18;;;;;;;;;;4463874;32;20222;-51
2021/09/04 03:11:36;;;;;;;6.12;4.47;;;;;;;;;;4463616;32;20216;-51
2021/09/04 03:14:02;;;;;;;6.47;4.35;;;;;;;;;;4462296;32;20296;-52
2021/09/04 03:16:28;;;;;;;5.30;4.10;;;;;;;;;;4463791;32;20307;-51
2021/09/04 03:18:54;;;;;;;8.70;3.45;;;;;;;;;;4463592;32;20252;-51
2021/09/04 03:21:19;;;;;;;8.07;4.57;;;;;;;;;;4463900;32;20220;-51
2021/09/04 03:23:45;;;;;;;6.35;3.97;;;;;;;;;;4463580;32;20243;-51
2021/09/04 03:26:10;;;;;;;4.95;3.87;;;;;;;;;;4463437;32;20279;-51
2021/09/04 03:28:36;;;;;;;5.45;3.45;;;;;;;;;;4463455;32;20699;-51
2021/09/04 03:31:01;;;;;;;6.60;4.10;;;;;;;;;;4463697;32;20283;-51
2021/09/04 03:33:27;;;;;;;6.07;4.12;;;;;;;;;;4451505;32;20288;-51
2021/09/04 03:35:52;;;;;;;8.93;3.70;;;;;;;;;;4450196;32;20275;-51
2021/09/04 03:38:17;;;;;;;7.65;3.70;;;;;;;;;;4449895;32;20303;-51
2021/09/04 03:40:43;;;;;;;6.30;3.72;;;;;;;;;;4450929;32;20409;-51
2021/09/04 03:43:09;;;;;;;7.60;3.25;;;;;;;;;;4450854;32;20278;-51
2021/09/04 03:45:35;;;;;;;5.65;4.12;;;;;;;;;;4450792;32;20271;-51
2021/09/04 03:48:00;;;;;;;4.43;3.83;;;;;;;;;;4450938;32;20694;-51
2021/09/04 03:50:26;;;;;;;3.80;3.40;;;;;;;;;;4450911;32;20225;-51
2021/09/04 03:52:51;;;;;;;5.32;3.78;;;;;;;;;;4450706;32;20683;-52
2021/09/04 03:55:16;;;;;;;4.72;3.67;;;;;;;;;;4450674;32;20243;-51
2021/09/04 03:57:42;;;;;;;4.75;3.10;;;;;;;;;;4450364;32;20221;-51
2021/09/04 04:00:08;;;;;;;7.57;4.20;;;;;;;;;;4450504;32;20363;-51
2021/09/04 04:02:33;;;;;;;5.05;4.07;;;;;;;;;;4464400;32;20240;-51
2021/09/04 04:04:59;;;;;;;6.20;3.97;;;;;;;;;;4466108;32;20212;-51
2021/09/04 04:07:24;;;;;;;8.40;5.85;;;;;;;;;;4466021;32;20248;-51
2021/09/04 04:09:50;;;;;;;16.85;9.30;;;;;;;;;;4465639;32;20255;-51
2021/09/04 04:12:15;;;;;;;5.07;4.25;;;;;;;;;;4465557;32;20244;-51
2021/09/04 04:14:41;;;;;;;5.85;4.53;;;;;;;;;;4465537;32;20310;-50
2021/09/04 04:17:06;;;;;;;7.85;5.78;;;;;;;;;;4465772;32;20255;-50
2021/09/04 04:19:31;;;;;;;6.85;4.50;;;;;;;;;;4465759;32;20283;-50
2021/09/04 04:21:57;;;;;;;6.82;4.30;;;;;;;;;;4465744;32;20821;-51
2021/09/04 04:24:22;;;;;;;7.68;4.68;;;;;;;;;;4465142;32;20270;-50
2021/09/04 04:26:48;;;;;;;6.82;3.97;;;;;;;;;;4465498;32;20374;-50
2021/09/04 04:29:13;;;;;;;6.87;5.00;;;;;;;;;;4465466;32;20192;-50
2021/09/04 04:31:39;;;;;;;5.00;3.22;;;;;;;;;;4464374;32;20423;-50
2021/09/04 04:34:06;;;;;;;6.45;4.53;;;;;;;;;;4450002;32;20238;-50
2021/09/04 04:36:31;;;;;;;6.25;4.00;;;;;;;;;;4450030;32;20528;-50
2021/09/04 04:38:57;;;;;;;6.90;4.25;;;;;;;;;;4448551;32;20290;-51
2021/09/04 04:41:22;;;;;;;11.85;4.05;;;;;;;;;;4449839;32;20679;-51
2021/09/04 04:43:48;;;;;;;5.93;4.03;;;;;;;;;;4453680;32;20302;-52
2021/09/04 04:46:14;;;;;;;6.05;4.15;;;;;;;;;;4464803;32;20232;-52
2021/09/04 04:48:39;;;;;;;10.88;4.43;;;;;;;;;;4464936;32;20204;-50
2021/09/04 04:51:05;;;;;;;6.70;4.35;;;;;;;;;;4464064;32;20295;-50
2021/09/04 04:53:30;;;;;;;6.32;4.35;;;;;;;;;;4464964;32;20305;-50
2021/09/04 04:55:56;;;;;;;10.43;5.45;;;;;;;;;;4464801;32;20332;-50
2021/09/04 04:58:22;;;;;;;9.07;4.43;;;;;;;;;;4463256;32;20299;-51
2021/09/04 05:00:48;;;;;;;8.18;6.12;;;;;;;;;;4462992;32;20812;-52
2021/09/04 05:03:14;;;;;;;9.15;6.25;;;;;;;;;;4464565;32;20268;-50
2021/09/04 05:05:39;;;;;;;8.75;5.55;;;;;;;;;;4464715;32;20301;-51
2021/09/04 05:08:05;;;;;;;9.95;5.60;;;;;;;;;;4465238;32;20303;-50
2021/09/04 05:10:30;;;;;;;7.05;5.22;;;;;;;;;;4463158;32;20288;-50
2021/09/04 05:12:55;;;;;;;8.32;5.22;;;;;;;;;;4464952;32;20560;-51
2021/09/04 05:15:21;;;;;;;9.00;5.47;;;;;;;;;;4464642;32;20189;-51
2021/09/04 05:17:46;;;;;;;14.55;5.30;;;;;;;;;;4460677;32;20254;-51
2021/09/04 05:20:12;;;;;;;8.40;5.30;;;;;;;;;;4464776;32;20335;-50
2021/09/04 05:22:40;;;;;;;7.18;4.60;;;;;;;;;;4464685;32;20295;-50
2021/09/04 05:25:06;;;;;;;7.18;4.68;;;;;;;;;;4464891;32;20260;-51
2021/09/04 05:27:32;;;;;;;7.90;3.97;;;;;;;;;;4463300;32;20716;-51
2021/09/04 05:29:57;;;;;;;9.25;5.30;;;;;;;;;;4464728;32;20301;-50
2021/09/04 05:32:23;;;;;;;7.07;4.30;;;;;;;;;;4458996;32;20235;-51
2021/09/04 05:34:50;;;;;;;4.80;4.00;;;;;;;;;;4464073;32;20635;-51
2021/09/04 05:37:16;;;;;;;6.97;3.62;;;;;;;;;;4464724;32;20569;-50
2021/09/04 05:39:42;;;;;;;6.78;4.10;;;;;;;;;;4463733;32;20595;-50
2021/09/04 05:42:07;;;;;;;4.65;3.85;;;;;;;;;;4457596;32;20270;-52
2021/09/04 05:44:33;;;;;;;6.57;3.85;;;;;;;;;;4448582;32;20700;-50
2021/09/04 05:46:58;;;;;;;6.15;5.05;;;;;;;;;;4448629;32;20260;-51
2021/09/04 05:49:24;;;;;;;8.63;4.57;;;;;;;;;;4448477;32;20658;-50
2021/09/04 05:51:49;;;;;;;5.57;4.30;;;;;;;;;;4453631;32;20751;-50
2021/09/04 05:54:14;;;;;;;6.35;4.60;;;;;;;;;;4448362;32;20255;-51
2021/09/04 05:56:40;;;;;;;6.25;3.87;;;;;;;;;;4462667;32;20295;-51
2021/09/04 05:59:05;;;;;;;7.37;5.03;;;;;;;;;;4463835;32;20264;-51
2021/09/04 06:01:31;;;;;;;9.48;3.80;;;;;;;;;;4456361;32;20683;-51
2021/09/04 06:03:56;;;;;;;5.78;4.12;;;;;;;;;;4446957;32;20290;-51
2021/09/04 06:06:22;;;;;;;6.78;4.12;;;;;;;;;;4445619;32;20321;-51
2021/09/04 06:08:47;;;;;;;6.45;4.15;;;;;;;;;;4446015;32;20797;-51
2021/09/04 06:11:13;;;;;;;7.07;3.87;;;;;;;;;;4444664;32;20636;-50
2021/09/04 06:13:38;;;;;;;7.30;4.07;;;;;;;;;;4446142;32;20232;-50
2021/09/04 06:16:04;;;;;;;5.22;4.60;;;;;;;;;;4446352;32;20331;-52
2021/09/04 06:18:29;;;;;;;5.80;4.32;;;;;;;;;;4445749;32;20754;-50
2021/09/04 06:20:55;;;;;;;9.70;5.10;;;;;;;;;;4449003;32;20302;-51
2021/09/04 06:23:20;;;;;;;5.80;4.10;;;;;;;;;;4448658;32;20255;-51
2021/09/04 06:25:46;;;;;;;7.50;5.07;;;;;;;;;;4446429;32;20259;-51
2021/09/04 06:28:11;;;;;;;9.23;4.37;;;;;;;;;;4447594;32;20284;-51
2021/09/04 06:30:36;;;;;;;10.70;3.95;;;;;;;;;;4447390;32;20224;-51
2021/09/04 06:33:02;;;;;;;5.30;4.05;;;;;;;;;;4457573;32;20315;-50
2021/09/04 06:35:28;;;;;;;8.82;3.85;;;;;;;;;;4462696;32;20361;-51
2021/09/04 06:37:53;;;;;;;5.68;4.18;;;;;;;;;;4463027;32;20342;-52
2021/09/04 06:40:19;;;;;;;9.82;4.78;;;;;;;;;;4463208;32;20239;-51
2021/09/04 06:42:44;;;;;;;11.05;4.90;;;;;;;;;;4463739;32;20302;-52
2021/09/04 06:45:10;;;;;;;9.40;4.60;;;;;;;;;;4462873;32;20668;-50
2021/09/04 06:47:35;;;;;;;4.18;3.25;;;;;;;;;;4452553;32;20367;-51
2021/09/04 06:50:02;;;;;;;4.10;3.60;;;;;;;;;;4445885;32;20262;-51
2021/09/04 06:52:28;;;;;;;8.00;4.70;;;;;;;;;;4446684;32;20318;-51
2021/09/04 06:54:53;;;;;;;6.57;4.20;;;;;;;;;;4446123;32;20268;-51
2021/09/04 06:57:18;;;;;;;7.93;4.55;;;;;;;;;;4446931;32;20288;-50
2021/09/04 06:59:44;;;;;;;6.43;4.35;;;;;;;;;;4446624;32;20232;-51
2021/09/04 07:02:09;;;;;;;6.82;4.78;;;;;;;;;;4447833;32;20209;-51
2021/09/04 07:04:35;;;;;;;8.27;4.43;;;;;;;;;;4448138;32;20271;-51
2021/09/04 07:07:05;;;;;;;5.95;3.92;;;;;;;;;;4448274;32;20324;-53
2021/09/04 07:09:31;;;;;;;5.55;4.12;;;;;;;;;;4449647;32;20259;-51
2021/09/04 07:11:57;;;;;;;7.53;4.20;;;;;;;;;;4450966;32;20192;-51
2021/09/04 07:14:22;;;;;;;7.43;4.45;;;;;;;;;;4450655;32;20629;-51
2021/09/04 07:16:48;;;;;;;14.48;4.70;;;;;;;;;;4450885;32;20605;-51
2021/09/04 07:19:13;;;;;;;7.28;4.10;;;;;;;;;;4450902;32;20861;-51
2021/09/04 07:21:39;;;;;;;8.02;4.18;;;;;;;;;;4451048;32;20268;-51
2021/09/04 07:24:05;;;;;;;11.63;4.10;;;;;;;;;;4450711;32;20343;-51
2021/09/04 07:26:31;;;;;;;5.80;3.90;;;;;;;;;;4450424;32;20308;-51
2021/09/04 07:28:57;;;;;;;8.30;4.10;;;;;;;;;;4450831;32;20668;-50
2021/09/04 07:31:22;;;;;;;5.50;3.58;;;;;;;;;;4450522;32;20322;-51
2021/09/04 07:33:48;;;;;;;5.72;4.00;;;;;;;;;;4450324;32;20311;-51
2021/09/04 07:36:13;;;;;;;5.68;4.00;;;;;;;;;;4450317;32;20268;-50
2021/09/04 07:38:39;;;;;;;7.68;3.37;;;;;;;;;;4450687;32;20259;-51
2021/09/04 07:41:04;;;;;;;7.32;3.78;;;;;;;;;;4450177;32;20322;-51
2021/09/04 07:43:30;;;;;;;5.72;3.00;;;;;;;;;;4449988;32;20217;-51
2021/09/04 07:45:56;;;;;;;5.85;4.15;;;;;;;;;;4450564;32;20328;-51
2021/09/04 07:48:21;;;;;;;6.75;4.15;;;;;;;;;;4450110;32;20569;-51
2021/09/04 07:50:46;;;;;;;7.80;3.80;;;;;;;;;;4453079;32;20275;-51
2021/09/04 07:53:12;;;;;;;8.00;3.78;;;;;;;;;;4466043;32;20385;-50
2021/09/04 07:55:37;;;;;;;3.90;3.33;;;;;;;;;;4465846;32;20310;-51
2021/09/04 07:58:03;;;;;;;5.25;3.55;;;;;;;;;;4464143;32;20715;-51
2021/09/04 08:00:28;;;;;;;4.47;3.37;;;;;;;;;;4465560;32;20199;-50
2021/09/04 08:02:54;;;;;;;6.90;4.03;;;;;;;;;;4465463;32;20208;-52
2021/09/04 08:05:19;;;;;;;4.60;2.97;;;;;;;;;;4465103;32;20250;-51
2021/09/04 08:07:45;;;;;;;6.00;4.50;;;;;;;;;;4465556;32;20279;-50
2021/09/04 08:10:10;;;;;;;5.78;4.00;;;;;;;;;;4465412;32;20216;-51
2021/09/04 08:12:36;;;;;;;9.00;4.28;;;;;;;;;;4465561;32;20271;-51
2021/09/04 08:15:02;;;;;;;5.95;3.87;;;;;;;;;;4465241;32;20228;-51
2021/09/04 08:17:27;;;;;;;9.63;3.75;;;;;;;;;;4465469;32;20358;-51
2021/09/04 08:19:53;;;;;;;4.40;3.50;;;;;;;;;;4465108;32;20640;-51
2021/09/04 08:22:18;;;;;;;11.73;4.90;;;;;;;;;;4465576;32;20664;-51
2021/09/04 08:24:44;;;;;;;4.40;3.22;;;;;;;;;;4465557;32;20280;-51
2021/09/04 08:27:09;;;;;;;6.55;4.30;;;;;;;;;;4465204;32;20263;-50
2021/09/04 08:29:35;;;;;;;7.45;4.60;;;;;;;;;;4464951;32;20298;-52
2021/09/04 08:32:00;;;;;;;6.12;2.87;;;;;;;;;;4464992;32;20343;-52
2021/09/04 08:34:26;;;;;;;4.30;3.03;;;;;;;;;;4464800;32;20224;-51
2021/09/04 08:36:52;;;;;;;6.55;3.53;;;;;;;;;;4465269;32;20283;-53
2021/09/04 08:39:17;;;;;;;8.50;4.50;;;;;;;;;;4463492;32;20259;-51
2021/09/04 08:41:44;;;;;;;7.75;4.35;;;;;;;;;;4447854;32;20783;-51
2021/09/04 08:44:09;;;;;;;5.53;3.35;;;;;;;;;;4449607;32;20248;-51
2021/09/04 08:46:37;;;;;;;6.80;3.97;;;;;;;;;;4449543;32;20351;-51
2021/09/04 08:49:05;;;;;;;5.70;3.42;;;;;;;;;;4449495;32;20233;-51
2021/09/04 08:51:32;;;;;;;4.05;3.17;;;;;;;;;;4449085;32;20276;-51
2021/09/04 08:53:57;;;;;;;7.70;4.05;;;;;;;;;;4448167;32;20266;-51
2021/09/04 08:56:23;;;;;;;7.18;3.87;;;;;;;;;;4448943;32;20276;-52
2021/09/04 08:58:49;;;;;;;7.18;3.35;;;;;;;;;;4449243;32;20303;-51
2021/09/04 09:01:21;;;;;;;7.60;3.92;;;;;;;;;;4449062;32;20280;-51
2021/09/04 09:03:49;;;;;;;4.45;3.33;;;;;;;;;;4448296;32;20297;-51
2021/09/04 09:06:27;;;;;;;4.45;3.03;;;;;;;;;;4448871;32;20196;-52
2021/09/04 09:08:53;;;;;;;5.75;3.60;;;;;;;;;;4449098;32;20314;-52
2021/09/04 09:11:18;;;;;;;3.87;2.85;;;;;;;;;;4448914;32;20311;-52
2021/09/04 09:13:49;;;;;;;4.97;3.42;;;;;;;;;;4449146;32;20269;-51
2021/09/04 09:16:16;;;;;;;6.75;3.03;;;;;;;;;;4448724;32;20201;-52
2021/09/04 09:18:42;;;;;;;6.97;3.25;;;;;;;;;;4448896;32;20228;-52
2021/09/04 09:21:08;;;;;;;8.07;3.33;;;;;;;;;;4448911;32;20353;-53
2021/09/04 09:23:33;;;;;;;2.87;2.58;;;;;;;;;;4449219;32;20595;-52
2021/09/04 09:26:07;;;;;;;3.33;2.50;;;;;;;;;;4448532;32;20275;-54
2021/09/04 09:28:32;;;;;;;6.95;3.30;;;;;;;;;;4448900;32;20347;-53
2021/09/04 09:31:00;;;;;;;10.13;2.90;;;;;;;;;;4449637;32;20299;-52
2021/09/04 09:33:31;;;;;;;6.10;3.45;;;;;;;;;;4448184;32;20736;-51
2021/09/04 09:36:03;;;;;;;6.07;2.20;;;;;;;;;;4447434;32;20315;-51
2021/09/04 09:38:31;;;;;;;5.70;2.87;;;;;;;;;;4448370;32;20311;-51
2021/09/04 09:40:58;;;;;;;4.12;2.67;;;;;;;;;;4448518;32;20300;-52
2021/09/04 09:43:26;;;;;;;5.18;2.83;;;;;;;;;;4448972;32;20810;-52
2021/09/04 09:45:59;;;;;;;3.85;2.90;;;;;;;;;;4449055;32;20493;-52
2021/09/04 09:48:30;;;;;;;4.57;2.90;;;;;;;;;;4448587;32;20229;-52
2021/09/04 09:50:58;;;;;;;4.90;3.03;;;;;;;;;;4452567;32;20243;-53
2021/09/04 09:53:24;;;;;;;3.37;2.53;;;;;;;;;;4464042;32;20676;-52
2021/09/04 09:55:51;;;;;;;3.67;2.67;;;;;;;;;;4463851;32;20262;-53
2021/09/04 09:58:18;;;;;;;3.28;2.65;;;;;;;;;;4463865;32;20269;-52
2021/09/04 10:00:44;;;;;;;3.83;2.85;;;;;;;;;;4462903;32;20216;-52
2021/09/04 10:03:11;;;;;;;4.12;2.45;;;;;;;;;;4463966;32;20601;-51
2021/09/04 10:05:38;;;;;;;4.47;2.95;;;;;;;;;;4463996;32;20264;-53
2021/09/04 10:08:04;;;;;;;4.80;2.85;;;;;;;;;;4464166;32;20236;-52
2021/09/04 10:10:40;;;;;;;5.20;3.35;;;;;;;;;;4463586;32;20325;-52
2021/09/04 10:13:06;;;;;;;3.33;2.67;;;;;;;;;;4464230;32;20264;-52
2021/09/04 10:15:35;;;;;;;12.85;3.25;;;;;;;;;;4463905;32;20226;-52
2021/09/04 10:18:04;;;;;;;4.40;3.35;;;;;;;;;;4464281;32;20222;-52
2021/09/04 10:20:30;;;;;;;8.48;2.78;;;;;;;;;;4464026;32;20590;-52
2021/09/04 10:23:29;;;;;;;4.68;3.37;;;;;;;;;;4462565;32;20299;-53
2021/09/04 10:25:55;;;;;;;4.55;2.55;;;;;;;;;;4463815;32;20624;-52
2021/09/04 10:28:20;;;;;;;10.88;3.12;;;;;;;;;;4463966;32;20296;-52
2021/09/04 10:30:52;;;;;;;5.87;3.05;;;;;;;;;;4463542;32;20276;-54
2021/09/04 10:33:24;;;;;;;8.45;3.58;;;;;;;;;;4450453;32;20267;-52
2021/09/04 10:35:55;;;;;;;3.50;2.72;;;;;;;;;;4448399;32;20281;-53
2021/09/04 10:38:20;;;;;;;3.85;2.92;;;;;;;;;;4447947;32;20216;-53
2021/09/04 10:40:47;;;;;;;5.68;2.85;;;;;;;;;;4448114;32;20295;-52
2021/09/04 10:43:17;;;;;;;4.75;2.95;;;;;;;;;;4448231;32;20279;-53
2021/09/04 10:45:44;;;;;;;5.03;3.42;;;;;;;;;;4451492;32;20188;-53
2021/09/04 10:48:21;;;;;;;3.78;2.97;;;;;;;;;;4451349;32;20274;-52
2021/09/04 10:51:07;;;;;;;5.18;3.17;;;;;;;;;;4454131;32;20597;-52
2021/09/04 10:53:47;;;;;;;6.93;3.30;;;;;;;;;;4466537;32;20592;-52
2021/09/04 10:56:20;;;;;;;4.12;3.17;;;;;;;;;;4466643;32;20196;-52
2021/09/04 10:58:46;;;;;;;3.72;2.72;;;;;;;;;;4466648;32;20375;-52
2021/09/04 11:01:52;;;;;;;5.47;2.75;;;;;;;;;;4466602;32;20778;-53
2021/09/04 11:04:18;;;;;;;6.25;3.40;;;;;;;;;;4459236;32;20290;-52
2021/09/04 11:06:50;;;;;;;7.95;3.47;;;;;;;;;;4466081;32;20427;-52
2021/09/04 11:09:17;;;;;;;5.72;2.72;;;;;;;;;;4466197;32;20229;-51
2021/09/04 11:11:43;;;;;;;3.15;2.65;;;;;;;;;;4466131;32;20201;-53
2021/09/04 11:14:19;;;;;;;5.82;3.35;;;;;;;;;;4466079;32;20319;-51
2021/09/04 11:16:47;;;;;;;4.60;3.08;;;;;;;;;;4466380;32;20212;-51
2021/09/04 11:19:16;;;;;;;4.18;3.17;;;;;;;;;;4466036;32;20295;-54
2021/09/04 11:21:59;;;;;;;3.47;2.60;;;;;;;;;;4466514;32;20608;-52
2021/09/04 11:24:26;;;;;;;3.75;2.87;;;;;;;;;;4466396;32;20255;-52
2021/09/04 11:26:54;;;;;;;4.97;3.33;;;;;;;;;;4466111;32;20255;-52
2021/09/04 11:29:21;;;;;;;5.15;2.58;;;;;;;;;;4456084;32;20295;-52
2021/09/04 11:31:57;;;;;;;3.62;2.70;;;;;;;;;;4452134;32;20298;-52
2021/09/04 11:34:39;;;;;;;5.53;3.25;;;;;;;;;;4465769;32;20718;-52
2021/09/04 11:37:35;;;;;;;7.57;3.40;;;;;;;;;;4465826;32;20242;-52
2021/09/04 11:40:10;;;;;;;6.87;3.92;;;;;;;;;;4465531;32;20228;-52
2021/09/04 11:42:47;;;;;;;4.10;3.20;;;;;;;;;;4466077;32;20195;-51
2021/09/04 11:45:19;;;;;;;4.43;3.20;;;;;;;;;;4465897;32;20253;-52
2021/09/04 11:47:47;;;;;;;4.32;3.30;;;;;;;;;;4466110;32;20716;-52
2021/09/04 11:50:26;;;;;;;3.55;2.30;;;;;;;;;;4465902;32;20816;-52
2021/09/04 11:52:52;;;;;;;8.68;3.45;;;;;;;;;;4450517;32;20601;-52
2021/09/04 11:55:22;;;;;;;3.67;2.67;;;;;;;;;;4448930;32;20273;-52
2021/09/04 11:57:56;;;;;;;4.87;3.35;;;;;;;;;;4450580;32;20247;-53
2021/09/04 12:00:30;;;;;;;4.90;3.50;;;;;;;;;;4449993;32;20281;-52
2021/09/04 12:03:00;;;;;;;3.60;3.10;;;;;;;;;;4449961;32;20239;-51
2021/09/04 12:05:35;;;;;;;3.95;3.12;;;;;;;;;;4449691;32;20200;-51
2021/09/04 12:08:06;;;;;;;7.62;3.70;;;;;;;;;;4450120;32;20206;-52
2021/09/04 12:10:34;;;;;;;4.00;3.37;;;;;;;;;;4449632;32;20257;-52
2021/09/04 12:13:03;;;;;;;5.97;3.47;;;;;;;;;;4450042;32;20233;-52
2021/09/04 12:15:30;;;;;;;4.43;3.10;;;;;;;;;;4449855;32;20287;-53
2021/09/04 12:18:02;;;;;;;3.95;3.33;;;;;;;;;;4450040;32;20585;-52
2021/09/04 12:20:36;;;;;;;4.62;3.37;;;;;;;;;;4449778;32;20619;-52
2021/09/04 12:23:14;;;;;;;5.43;3.05;;;;;;;;;;4450391;32;20280;-52
2021/09/04 12:25:40;;;;;;;4.00;2.70;;;;;;;;;;4449544;32;20375;-53
2021/09/04 12:28:08;;;;;;;3.85;3.28;;;;;;;;;;4449728;32;20343;-52
2021/09/04 12:30:56;;;;;;;4.90;3.00;;;;;;;;;;4449781;32;20201;-53
2021/09/04 12:33:21;;;;;;;8.57;2.90;;;;;;;;;;4461398;32;20632;-53
2021/09/04 12:35:47;;;;;;;5.80;3.28;;;;;;;;;;4465198;32;20275;-52
2021/09/04 12:38:18;;;;;;;9.05;3.22;;;;;;;;;;4464863;32;20773;-52
2021/09/04 12:41:20;;;;;;;4.43;3.70;;;;;;;;;;4464832;32;20236;-52
2021/09/04 12:43:51;;;;;;;13.00;7.85;;;;;;;;;;4465222;32;20298;-52
2021/09/04 12:46:26;;;;;;;7.65;5.32;;;;;;;;;;4465511;32;20351;-52
2021/09/04 12:48:52;;;;;;;11.77;4.50;;;;;;;;;;4465273;32;20251;-52
2021/09/04 12:51:17;;;;;;;5.20;3.78;;;;;;;;;;4458578;32;21011;-52
2021/09/04 12:53:58;;;;;;;4.70;3.50;;;;;;;;;;4449634;32;20291;-53
2021/09/04 12:56:41;;;;;;;3.72;2.87;;;;;;;;;;4449579;32;20621;-53
2021/09/04 12:59:08;;;;;;;5.00;3.50;;;;;;;;;;4449591;32;20571;-53
2021/09/04 13:01:34;;;;;;;5.80;3.42;;;;;;;;;;4449240;32;20540;-54
2021/09/04 13:04:04;;;;;;;5.07;3.53;;;;;;;;;;4449138;32;20232;-53
2021/09/04 13:06:32;;;;;;;5.28;4.07;;;;;;;;;;4448784;32;20205;-53
2021/09/04 13:08:59;;;;;;;6.37;3.97;;;;;;;;;;4448918;32;20865;-53
2021/09/04 13:11:25;;;;;;;4.87;3.85;;;;;;;;;;4448903;32;20272;-54
2021/09/04 13:13:51;;;;;;;6.35;3.40;;;;;;;;;;4448918;32;20279;-53
2021/09/04 13:16:16;;;;;;;5.10;3.53;;;;;;;;;;4448760;32;20383;-53
2021/09/04 13:18:42;;;;;;;4.68;3.37;;;;;;;;;;4448951;32;20672;-53
2021/09/04 13:21:08;;;;;;;6.03;3.47;;;;;;;;;;4448466;32;20291;-52
2021/09/04 13:23:34;;;;;;;4.80;3.42;;;;;;;;;;4448650;32;20268;-52
2021/09/04 13:26:00;;;;;;;5.70;4.28;;;;;;;;;;4448788;32;20275;-53
2021/09/04 13:28:25;;;;;;;4.50;3.47;;;;;;;;;;4448464;32;20232;-53
2021/09/04 13:30:51;;;;;;;4.55;3.45;;;;;;;;;;4448864;32;20379;-52
2021/09/04 13:33:16;;;;;;;6.45;4.03;;;;;;;;;;4459631;32;20300;-52
2021/09/04 13:35:42;;;;;;;5.50;3.72;;;;;;;;;;4462873;32;20773;-52
2021/09/04 13:38:07;;;;;;;5.00;3.47;;;;;;;;;;4464455;32;20657;-52
2021/09/04 13:40:32;;;;;;;4.62;3.25;;;;;;;;;;4463627;32;20303;-52
2021/09/04 13:42:58;;;;;;;5.65;3.83;;;;;;;;;;4464355;32;20283;-52
2021/09/04 13:45:24;;;;;;;7.50;3.83;;;;;;;;;;4463696;32;20232;-52
2021/09/04 13:47:49;;;;;;;4.55;3.30;;;;;;;;;;4463835;32;20279;-53
2021/09/04 13:50:14;;;;;;;5.32;3.53;;;;;;;;;;4463813;32;20216;-53
2021/09/04 13:52:40;;;;;;;6.28;3.90;;;;;;;;;;4463710;32;20267;-52
2021/09/04 13:55:06;;;;;;;4.72;3.90;;;;;;;;;;4463863;32;20652;-52
2021/09/04 13:57:31;;;;;;;6.55;4.18;;;;;;;;;;4463669;32;20287;-54
2021/09/04 13:59:57;;;;;;;5.78;3.97;;;;;;;;;;4464015;32;20714;-52
2021/09/04 14:02:22;;;;;;;5.15;3.45;;;;;;;;;;4463776;32;20356;-53
2021/09/04 14:04:48;;;;;;;5.87;3.70;;;;;;;;;;4463730;32;20597;-53
2021/09/04 14:07:13;;;;;;;4.12;3.70;;;;;;;;;;4463650;32;20588;-52
2021/09/04 14:09:39;;;;;;;6.32;3.33;;;;;;;;;;4463562;32;20537;-52
2021/09/04 14:12:06;;;;;;;5.62;3.40;;;;;;;;;;4463742;32;20239;-53
2021/09/04 14:14:32;;;;;;;5.60;3.67;;;;;;;;;;4462650;32;20625;-52
2021/09/04 14:16:57;;;;;;;4.95;3.45;;;;;;;;;;4460998;32;20370;-53
2021/09/04 14:19:23;;;;;;;4.05;3.28;;;;;;;;;;4445902;32;20246;-52
2021/09/04 14:21:49;;;;;;;5.25;3.22;;;;;;;;;;4448437;32;20347;-53
2021/09/04 14:24:14;;;;;;;4.10;3.03;;;;;;;;;;4448501;32;20251;-52
2021/09/04 14:26:40;;;;;;;3.78;3.10;;;;;;;;;;4448569;32;20271;-53
2021/09/04 14:29:05;;;;;;;4.10;3.47;;;;;;;;;;4448565;32;20259;-52
2021/09/04 14:31:30;;;;;;;5.55;3.55;;;;;;;;;;4448737;32;20307;-53
2021/09/04 14:33:56;;;;;;;6.00;3.62;;;;;;;;;;4463696;32;20243;-53
2021/09/04 14:36:21;;;;;;;4.43;3.12;;;;;;;;;;4463773;32;20314;-52
2021/09/04 14:38:47;;;;;;;8.35;4.22;;;;;;;;;;4463350;32;20255;-51
2021/09/04 14:41:12;;;;;;;6.25;3.95;;;;;;;;;;4463531;32;20271;-53
2021/09/04 14:43:38;;;;;;;8.25;3.42;;;;;;;;;;4463471;32;20216;-53